Sanford, Colorado
Current Conditions -  °F | °C
As of 6:52 PM on Wednesday 22 Oct 2014 (Local Time) from KALS Reporting Station
Broken Clouds Broken Clouds  
Wind Chill: 53°   Ceiling: 8000
Heat Index: 53°   Visibility: 10mi
Dew Point: 33°   Wind: 9mph
Humidity: 47%   Direction: 210°SSW
Pressure: 30.22"   Gusts: NA
Location:  37.26°N, 105.9°W
Report Text: KALS 230052Z AUTO 21008KT 10SM BKN080 12/01 A3022 RMK AO2 SLP204 T01170006
Loading
Personal Weather Stations






























Interactive Weather Map
Tropical Storm Tracking
New forecast layout! Learn more

10-Day Weather Forecast

Advertisements
Track Severe Weather on mobile